Las Lajas, Argentina
Current Conditions -  °F | °C
As of 10:00 PM on Saturday 22 Nov 2014 (Local Time) from SAZN Reporting Station
Clear Clear  
Wind Chill: 73°   Ceiling: Unl
Heat Index: 73°   Visibility: 6mi
Dew Point: 36°   Wind: 3mph
Humidity: 25%   Direction: 250°WSW
Pressure: 29.8"   Gusts: NA
Location:  38.52°S, 70.37°W
Report Text: SAZN 230100Z 25003KT CAVOK 23/02 Q1009
Loading
Personal Weather Stations






























Interactive Weather Map New forecast layout! Learn more

10-Day Weather Forecast

Advertisements
Track Severe Weather on mobile